Creighton, MO (64739)

2:35 PM CDT on September 19, 2014 (GMT -0500)
Holden Missouri | Change Station
CLOSE
Current Station
Personal Weather Station
Location: Holden, MO
Elevation: 900 ft
Nearby Weather Stations

Elev 900 ft 38.70 °N, 93.99 °W | Updated 8 seconds ago

Mostly Cloudy
Mostly Cloudy
75.9 °F
Feels Like 76 °F
N
6.8
Wind Variable Wind from South
Gusts 9.7 mph

Today
High -- | Low -- °F
--% Chance of Precip.
Yesterday
High -- | Low -- °F
Precip. -- in
7:01 AM 7:18 PM
Waning Crescent, 17% visible
Pressure 30.03 in
Visibility 8.0 miles
Clouds Few 2000 ft
Heat Index 76 °F
Dew Point 29 °F
Humidity 18%
Rainfall 0.00 in
Snow Depth Not available.
UV 7 out of 12
Pollen 5.40 out of 12
Air Quality Not available.
Flu Activity Not available.
METAR KGLY 191915Z AUTO 16006KT 8SM FEW020 25/21 A3003 RMK AO2

More Conditions Fewer Conditions

Pressure 30.03 in
Visibility 8.0 miles
Clouds Few 2000 ft
Heat Index 76 °F
Dew Point 29 °F
Humidity 18%
Rainfall 0.00 in
Snow Depth Not available.
UV 7 out of 12
Pollen 5.40 out of 12
Air Quality Not available.
Flu Activity Not available.
METAR KGLY 191915Z AUTO 16006KT 8SM FEW020 25/21 A3003 RMK AO2

More Conditions Fewer Conditions

10-Day Weather Forecast

Almanac

Astronomy

Sep. 19, 2014 Rise Set
Actual Time 7:01 AM CDT 7:18 PM CDT
Civil Twilight 6:34 AM CDT 7:44 PM CDT
Nautical Twilight 6:03 AM CDT 8:15 PM CDT
Astronomical Twilight 5:32 AM CDT 8:47 PM CDT
Moon 2:49 AM CDT 4:45 PM CDT
Length of Visible Light 13h 09m
Length of Day
12h 16m
Tomorrow will be 2m 28s shorter.
Waning Crescent, 17% of the Moon is Illuminated
Today
Waning Crescent
Sep 24
New
Oct 1
First Quarter
Oct 8
Full
Oct 15
Last Quarter

Today's Extremes

State Highs State Lows

Community

WunderPhotos

Upload Photos

1,754,687 photos uploaded!

WunderBlogs® & News

Nearby

Snow Depth

Station Depth Elevation
No new snow has been reported.

Earthquake Activity

City Distance Mag. Time & Date
No recent earthquake activity has been reported nearby.
Minimum magnitude displayed is 2.5.

Coastal Water Temperatures

Place Temperature
No Stations Reporting

Nearby Weather Stations